Time;durP1;ratioP1;P1;durP2;ratioP2;P2;SDS_P1;SDS_P2;PMS_P1;PMS_P2;Temp;Humidity;BMP_temperature;BMP_pressure;BME280_temperature;BME280_humidity;BME280_pressure;Samples;Min_cycle;Max_cycle;Signal;HPM_P1;HPM_P2
2023/06/24 00:01:52;;;;;;;76.18;39.45;;;;;;;16.23;100.00;101652.66;7399897;19;20447;-66
2023/06/24 00:04:21;;;;;;;73.40;39.78;;;;;;;16.20;100.00;101662.47;7397567;19;20077;-66
2023/06/24 00:06:52;;;;;;;75.25;39.33;;;;;;;16.17;100.00;101667.88;7398429;19;20027;-66
2023/06/24 00:09:20;;;;;;;69.18;39.30;;;;;;;16.12;100.00;101668.91;7400192;19;20074;-66
2023/06/24 00:11:49;;;;;;;73.03;38.50;;;;;;;16.11;100.00;101672.44;7399662;19;20031;-66
2023/06/24 00:14:17;;;;;;;67.53;37.92;;;;;;;16.07;100.00;101681.38;7397513;19;20537;-65
2023/06/24 00:16:48;;;;;;;76.22;38.38;;;;;;;16.03;100.00;101671.78;7394746;19;20011;-66
2023/06/24 00:19:21;;;;;;;67.68;37.58;;;;;;;16.02;100.00;101678.00;7400073;19;20010;-65
2023/06/24 00:21:51;;;;;;;73.88;39.50;;;;;;;15.99;100.00;101670.16;7399146;19;20073;-65
2023/06/24 00:24:21;;;;;;;74.05;38.13;;;;;;;15.95;100.00;101672.03;7396640;19;20084;-65
2023/06/24 00:26:49;;;;;;;73.57;39.22;;;;;;;15.92;100.00;101665.97;7399175;19;20037;-65
2023/06/24 00:29:18;;;;;;;79.80;41.15;;;;;;;15.90;100.00;101670.44;7399248;19;20074;-65
2023/06/24 00:31:46;;;;;;;72.97;38.83;;;;;;;15.87;100.00;101671.41;7398667;19;20482;-65
2023/06/24 00:34:15;;;;;;;77.55;40.45;;;;;;;15.83;100.00;101671.53;7397457;19;20078;-65
2023/06/24 00:36:46;;;;;;;79.85;40.28;;;;;;;15.79;100.00;101679.50;7396658;19;20018;-65
2023/06/24 00:39:22;;;;;;;89.65;42.08;;;;;;;15.76;100.00;101682.25;7397020;19;20010;-65
2023/06/24 00:41:50;;;;;;;82.55;41.85;;;;;;;15.75;100.00;101687.59;7398269;19;20021;-65
2023/06/24 00:44:19;;;;;;;82.20;42.25;;;;;;;15.73;100.00;101687.66;7396820;19;20031;-66
2023/06/24 00:46:49;;;;;;;85.30;40.97;;;;;;;15.71;100.00;101692.09;7397437;19;20159;-66
2023/06/24 00:49:17;;;;;;;92.15;43.53;;;;;;;15.69;100.00;101696.56;7395771;19;20018;-65
2023/06/24 00:51:50;;;;;;;96.90;43.80;;;;;;;15.66;100.00;101691.38;7398361;19;20081;-66
2023/06/24 00:54:18;;;;;;;89.03;42.88;;;;;;;15.64;100.00;101683.47;7396993;19;20026;-65
2023/06/24 00:56:48;;;;;;;97.10;46.13;;;;;;;15.62;100.00;101685.28;7397774;19;20549;-65
2023/06/24 00:59:19;;;;;;;91.93;45.28;;;;;;;15.60;100.00;101678.31;7398037;19;20074;-65
2023/06/24 01:01:49;;;;;;;93.53;44.42;;;;;;;15.58;100.00;101685.41;7397642;19;20538;-65
2023/06/24 01:04:19;;;;;;;92.22;45.78;;;;;;;15.56;100.00;101685.44;7395946;19;20450;-65
2023/06/24 01:06:51;;;;;;;93.45;46.67;;;;;;;15.54;100.00;101686.41;7395973;19;20022;-65
2023/06/24 01:09:20;;;;;;;96.10;47.05;;;;;;;15.52;100.00;101677.63;7397660;19;20553;-65
2023/06/24 01:11:48;;;;;;;91.45;45.47;;;;;;;15.51;100.00;101683.84;7397641;19;20019;-65
2023/06/24 01:14:19;;;;;;;97.47;46.35;;;;;;;15.48;100.00;101677.72;7396419;19;20507;-65
2023/06/24 01:16:54;;;;;;;100.05;47.22;;;;;;;15.46;100.00;101679.53;7395274;19;20083;-65
2023/06/24 01:19:48;;;;;;;94.18;46.67;;;;;;;15.44;100.00;101676.09;7397835;19;20022;-67
2023/06/24 01:22:47;;;;;;;93.35;46.53;;;;;;;15.43;100.00;101676.09;7397274;19;20014;-66
2023/06/24 01:25:36;;;;;;;90.18;45.70;;;;;;;15.40;100.00;101674.41;7397596;19;20103;-66
2023/06/24 01:28:33;;;;;;;106.70;48.35;;;;;;;15.37;100.00;101676.31;7394949;19;20433;-66
2023/06/24 01:31:27;;;;;;;111.55;49.65;;;;;;;15.35;100.00;101668.38;7396286;19;20038;-66
2023/06/24 01:34:01;;;;;;;;;;;;;;;15.32;100.00;101660.56;7397092;19;20094;-66
2023/06/24 01:36:32;;;;;;;96.73;46.43;;;;;;;15.30;100.00;101663.25;7397751;19;19918;-66
2023/06/24 01:39:05;;;;;;;99.65;47.47;;;;;;;15.29;100.00;101657.97;7394828;19;20087;-66
2023/06/24 01:41:38;;;;;;;102.70;50.72;;;;;;;15.27;100.00;101662.47;7397188;19;20011;-66
2023/06/24 01:44:09;;;;;;;108.35;52.95;;;;;;;15.26;100.00;101658.06;7395973;19;20478;-66
2023/06/24 01:46:39;;;;;;;108.50;52.55;;;;;;;15.25;100.00;101656.34;7397545;19;20018;-66
2023/06/24 01:49:14;;;;;;;104.13;50.47;;;;;;;15.24;100.00;101659.88;7396743;19;20025;-66
2023/06/24 01:51:44;;;;;;;103.25;51.17;;;;;;;15.23;100.00;101664.31;7397435;19;20070;-66
2023/06/24 01:54:16;;;;;;;105.97;52.22;;;;;;;15.23;100.00;101660.81;7395324;19;20077;-66
2023/06/24 01:56:47;;;;;;;108.60;51.63;;;;;;;15.21;100.00;101658.19;7397271;19;20035;-66
2023/06/24 01:59:20;;;;;;;108.07;51.88;;;;;;;15.20;100.00;101660.88;7396504;19;20517;-66
2023/06/24 02:01:48;;;;;;;115.70;54.10;;;;;;;15.19;100.00;101656.50;7395429;19;20023;-66
2023/06/24 02:04:21;;;;;;;113.53;54.85;;;;;;;15.18;100.00;101657.38;7395612;19;20026;-66
2023/06/24 02:06:50;;;;;;;113.32;52.95;;;;;;;15.16;100.00;101649.50;7395188;19;20070;-66
2023/06/24 02:09:21;;;;;;;115.32;52.97;;;;;;;15.14;100.00;101657.50;7396111;19;20014;-67
2023/06/24 02:11:51;;;;;;;103.75;51.40;;;;;;;15.13;100.00;101655.75;7395247;19;20014;-67
2023/06/24 02:14:21;;;;;;;114.03;53.40;;;;;;;15.11;100.00;101652.28;7394594;19;20078;-67
2023/06/24 02:16:56;;;;;;;121.13;54.10;;;;;;;15.10;100.00;101649.66;7396021;19;20075;-67
2023/06/24 02:19:29;;;;;;;110.75;54.72;;;;;;;15.08;100.00;101657.66;7396523;19;20015;-66
2023/06/24 02:22:00;;;;;;;115.32;52.92;;;;;;;15.06;100.00;101654.16;7395849;19;20435;-66
2023/06/24 02:24:30;;;;;;;116.70;55.03;;;;;;;15.05;100.00;101656.84;7394784;19;20077;-66
2023/06/24 02:27:00;;;;;;;127.90;55.58;;;;;;;15.03;100.00;101654.25;7395600;19;20031;-68
2023/06/24 02:29:31;;;;;;;125.50;54.63;;;;;;;15.01;100.00;101658.69;7396257;19;20025;-66
2023/06/24 02:31:59;;;;;;;119.57;54.35;;;;;;;14.99;100.00;101652.59;7396109;19;20019;-66
2023/06/24 02:34:31;;;;;;;121.47;54.25;;;;;;;14.99;100.00;101657.91;7393910;19;20498;-66
2023/06/24 02:37:00;;;;;;;122.20;53.85;;;;;;;14.96;100.00;101655.31;7396112;19;20022;-66
2023/06/24 02:39:44;;;;;;;116.38;53.50;;;;;;;14.93;100.00;101652.75;7391573;19;20482;-66
2023/06/24 02:42:12;;;;;;;124.70;55.20;;;;;;;14.92;100.00;101658.94;7395438;19;20378;-67
2023/06/24 02:44:42;;;;;;;123.50;54.20;;;;;;;14.89;100.00;101664.31;7393884;19;20022;-66
2023/06/24 02:47:13;;;;;;;126.00;55.08;;;;;;;14.87;100.00;101666.97;7393585;19;20086;-66
2023/06/24 02:49:48;;;;;;;126.82;53.70;;;;;;;14.86;100.00;101667.03;7394963;19;20014;-66
2023/06/24 02:52:18;;;;;;;136.45;56.90;;;;;;;14.85;100.00;101675.84;7395432;19;20018;-66
2023/06/24 02:54:47;;;;;;;129.77;56.85;;;;;;;14.85;100.00;101681.13;7393532;19;20014;-67
2023/06/24 02:57:16;;;;;;;118.10;52.60;;;;;;;14.82;100.00;101680.31;7395103;19;20081;-66
2023/06/24 02:59:45;;;;;;;117.72;51.25;;;;;;;14.79;100.00;101683.03;7393205;19;20018;-66
2023/06/24 03:02:15;;;;;;;115.00;49.97;;;;;;;14.78;100.00;101672.50;7394994;19;20018;-66
2023/06/24 03:04:47;;;;;;;110.45;49.75;;;;;;;14.77;100.00;101671.66;7393180;19;20042;-66
2023/06/24 03:07:20;;;;;;;110.25;49.75;;;;;;;14.75;100.00;101681.38;7395017;19;20083;-66
2023/06/24 03:09:49;;;;;;;110.85;51.53;;;;;;;14.74;100.00;101681.41;7393016;19;20022;-66
2023/06/24 03:12:17;;;;;;;103.07;49.47;;;;;;;14.73;100.00;101696.38;7394523;19;20021;-66
2023/06/24 03:14:46;;;;;;;96.50;49.00;;;;;;;14.71;100.00;101700.84;7392521;19;20494;-66
2023/06/24 03:17:15;;;;;;;96.55;47.92;;;;;;;14.70;100.00;101704.38;7394649;19;20090;-66
2023/06/24 03:19:46;;;;;;;101.70;48.47;;;;;;;14.69;100.00;101709.72;7394430;19;20082;-66
2023/06/24 03:22:14;;;;;;;90.30;46.38;;;;;;;14.66;100.00;101702.72;7394779;19;20078;-66
2023/06/24 03:24:43;;;;;;;78.72;45.65;;;;;;;14.62;100.00;101703.66;7392296;19;20086;-66
2023/06/24 03:27:12;;;;;;;86.13;45.65;;;;;;;14.61;100.00;101710.72;7393831;19;20087;-66
2023/06/24 03:29:41;;;;;;;79.53;43.75;;;;;;;14.59;100.00;101707.22;7392283;19;20367;-66
2023/06/24 03:32:10;;;;;;;72.38;42.38;;;;;;;14.58;100.00;101712.56;7394171;19;20010;-66
2023/06/24 03:34:38;;;;;;;71.32;41.20;;;;;;;14.54;100.00;101709.13;7392233;19;20018;-66
2023/06/24 03:37:09;;;;;;;67.80;41.10;;;;;;;14.49;100.00;101717.16;7393938;19;20014;-66
2023/06/24 03:39:38;;;;;;;68.00;40.78;;;;;;;14.49;100.00;101717.16;7392737;19;20082;-66
2023/06/24 03:42:07;;;;;;;72.25;43.58;;;;;;;14.49;100.00;101717.16;7393841;19;20017;-66
2023/06/24 03:44:35;;;;;;;66.43;40.38;;;;;;;14.48;100.00;101715.41;7391071;19;20424;-66
2023/06/24 03:47:04;;;;;;;82.30;44.28;;;;;;;14.49;100.00;101714.53;7391533;19;20018;-66
2023/06/24 03:49:32;;;;;;;78.38;43.97;;;;;;;14.48;100.00;101710.13;7392298;19;20015;-66
2023/06/24 03:52:00;;;;;;;74.07;44.50;;;;;;;14.47;100.00;101710.19;7401099;19;20078;-66
2023/06/24 03:54:31;;;;;;;81.03;43.75;;;;;;;14.45;100.00;101710.19;7398098;19;20018;-66
2023/06/24 03:57:00;;;;;;;75.72;42.35;;;;;;;14.45;100.00;101719.91;7401449;19;20107;-66
2023/06/24 03:59:28;;;;;;;77.45;42.58;;;;;;;14.43;100.00;101717.28;7400690;19;20019;-67
2023/06/24 04:01:57;;;;;;;79.90;43.20;;;;;;;14.45;100.00;101714.63;7400695;19;20029;-66
2023/06/24 04:04:25;;;;;;;78.30;43.85;;;;;;;14.45;100.00;101722.53;7398499;19;20018;-66
2023/06/24 04:06:54;;;;;;;75.57;43.53;;;;;;;14.45;100.00;101720.75;7400518;19;20018;-66
2023/06/24 04:09:23;;;;;;;81.47;44.70;;;;;;;14.46;100.00;101724.28;7397842;19;20015;-66
2023/06/24 04:11:54;;;;;;;76.13;42.60;;;;;;;14.43;100.00;101725.22;7400140;19;20029;-66
2023/06/24 04:14:22;;;;;;;78.70;42.78;;;;;;;14.42;100.00;101728.75;7397881;19;20553;-65
2023/06/24 04:16:51;;;;;;;77.28;42.90;;;;;;;14.40;100.00;101722.63;7399529;19;20477;-66
2023/06/24 04:19:19;;;;;;;75.07;44.15;;;;;;;14.42;100.00;101733.16;7399711;19;20490;-66
2023/06/24 04:21:48;;;;;;;83.80;46.72;;;;;;;14.41;100.00;101724.38;7400064;19;20090;-66
2023/06/24 04:24:16;;;;;;;79.43;44.75;;;;;;;14.41;100.00;101728.78;7398226;19;20021;-66
2023/06/24 04:26:45;;;;;;;78.60;44.58;;;;;;;14.41;100.00;101736.72;7399855;19;20081;-66
2023/06/24 04:29:16;;;;;;;86.55;44.10;;;;;;;14.42;100.00;101738.44;7398003;19;20021;-66
2023/06/24 04:31:44;;;;;;;81.85;44.60;;;;;;;14.43;100.00;101750.72;7399390;19;20014;-67
2023/06/24 04:34:13;;;;;;;85.10;44.70;;;;;;;14.43;100.00;101745.44;7397533;19;20485;-66
2023/06/24 04:36:41;;;;;;;77.88;42.85;;;;;;;14.46;100.00;101742.75;7399603;19;20019;-66
2023/06/24 04:39:10;;;;;;;81.88;44.40;;;;;;;14.48;100.00;101754.13;7398285;19;20014;-67
2023/06/24 04:41:38;;;;;;;82.00;44.22;;;;;;;14.49;100.00;101756.78;7397130;19;20018;-66
2023/06/24 04:44:07;;;;;;;74.93;43.00;;;;;;;14.49;100.00;101764.69;7398139;19;20020;-66
2023/06/24 04:46:39;;;;;;;74.78;41.92;;;;;;;14.50;100.00;101761.13;7399469;19;20362;-66
2023/06/24 04:49:08;;;;;;;62.15;39.17;;;;;;;14.50;100.00;101760.25;7397259;19;20026;-66
2023/06/24 04:51:36;;;;;;;61.15;38.05;;;;;;;14.48;100.00;101767.34;7399249;19;20015;-66
2023/06/24 04:54:05;;;;;;;58.90;37.63;;;;;;;14.47;100.00;101753.28;7397414;19;20097;-66
2023/06/24 04:56:34;;;;;;;57.88;36.45;;;;;;;14.48;100.00;101747.09;7398793;19;20014;-66
2023/06/24 04:59:02;;;;;;;57.45;34.92;;;;;;;14.51;100.00;101762.00;7396656;19;20018;-66
2023/06/24 05:01:31;;;;;;;55.30;34.55;;;;;;;14.49;100.00;101769.09;7396977;19;20374;-66
2023/06/24 05:04:02;;;;;;;58.05;34.78;;;;;;;14.44;100.00;101768.31;7397065;19;20014;-66
2023/06/24 05:06:30;;;;;;;53.25;33.38;;;;;;;14.40;100.00;101778.06;7398081;19;20082;-66
2023/06/24 05:08:59;;;;;;;52.90;33.65;;;;;;;14.38;100.00;101769.34;7396916;19;20022;-66
2023/06/24 05:11:27;;;;;;;49.60;33.78;;;;;;;14.37;100.00;101772.88;7398194;19;20074;-66
2023/06/24 05:13:56;;;;;;;53.63;32.58;;;;;;;14.41;100.00;101771.88;7396077;19;20094;-65
2023/06/24 05:16:24;;;;;;;53.35;34.78;;;;;;;14.47;100.00;101779.69;7397588;19;20398;-65
2023/06/24 05:18:53;;;;;;;58.03;35.45;;;;;;;14.52;100.00;101779.59;7397894;19;20018;-66
2023/06/24 05:21:24;;;;;;;54.22;34.65;;;;;;;14.57;100.00;101779.47;7398243;19;20007;-66
2023/06/24 05:23:52;;;;;;;46.75;31.25;;;;;;;14.57;100.00;101784.75;7396666;19;20014;-66
2023/06/24 05:26:20;;;;;;;46.35;32.70;;;;;;;14.58;100.00;101786.50;7397830;19;20014;-67
2023/06/24 05:28:49;;;;;;;46.75;31.85;;;;;;;14.60;100.00;101795.28;7396803;19;20352;-66
2023/06/24 05:31:18;;;;;;;47.92;32.90;;;;;;;14.64;100.00;101796.94;7397587;19;20081;-66
2023/06/24 05:33:46;;;;;;;42.97;29.65;;;;;;;14.68;100.00;101785.41;7396093;19;20014;-65
2023/06/24 05:36:15;;;;;;;44.88;30.17;;;;;;;14.73;100.00;101793.25;7397781;19;20018;-66
2023/06/24 05:38:48;;;;;;;44.05;28.80;;;;;;;14.72;100.00;101788.88;7396447;19;20074;-66
2023/06/24 05:41:16;;;;;;;34.72;28.08;;;;;;;14.74;100.00;101785.28;7396005;19;20010;-66
2023/06/24 05:43:46;;;;;;;40.13;29.13;;;;;;;14.80;100.00;101787.78;7396445;19;20025;-66
2023/06/24 05:46:14;;;;;;;34.92;26.88;;;;;;;14.82;100.00;101793.03;7396431;19;20019;-66
2023/06/24 05:48:43;;;;;;;36.13;26.95;;;;;;;14.86;100.00;101794.72;7395855;19;20006;-66
2023/06/24 05:51:11;;;;;;;39.45;28.50;;;;;;;14.92;100.00;101793.69;7396245;19;20010;-67
2023/06/24 05:53:40;;;;;;;34.47;25.33;;;;;;;14.94;100.00;101805.13;7396124;19;20042;-66
2023/06/24 05:56:11;;;;;;;37.55;27.95;;;;;;;14.94;100.00;101795.41;7396716;19;20029;-67
2023/06/24 05:58:40;;;;;;;36.35;26.40;;;;;;;14.97;100.00;101799.75;7396168;19;20513;-65
2023/06/24 06:01:08;;;;;;;42.65;28.50;;;;;;;14.97;100.00;101802.38;7396475;19;20048;-66
2023/06/24 06:03:37;;;;;;;35.65;26.52;;;;;;;15.02;100.00;101807.56;7394840;19;20019;-66
2023/06/24 06:06:06;;;;;;;38.65;25.92;;;;;;;15.03;100.00;101796.97;7395488;19;20500;-66
2023/06/24 06:08:35;;;;;;;32.90;26.13;;;;;;;15.09;100.00;101804.75;7395545;19;20018;-66
2023/06/24 06:11:04;;;;;;;30.70;24.40;;;;;;;15.13;100.00;101806.41;7396317;19;20010;-66
2023/06/24 06:13:36;;;;;;;34.35;26.45;;;;;;;15.16;100.00;101802.81;7391057;19;20014;-65
2023/06/24 06:16:04;;;;;;;35.40;26.83;;;;;;;15.24;100.00;101808.81;7395840;19;20014;-66
2023/06/24 06:18:33;;;;;;;30.35;23.55;;;;;;;15.25;100.00;101804.38;7396205;19;20038;-65
2023/06/24 06:21:01;;;;;;;29.50;23.77;;;;;;;15.23;100.00;101804.41;7395945;19;20018;-66
2023/06/24 06:23:30;;;;;;;28.20;22.30;;;;;;;15.25;100.00;101807.00;7394858;19;20015;-66
2023/06/24 06:25:58;;;;;;;29.88;23.48;;;;;;;15.27;100.00;101810.50;7395477;19;20425;-66
2023/06/24 06:28:27;;;;;;;24.38;21.83;;;;;;;15.28;100.00;101802.53;7395178;19;20033;-66
2023/06/24 06:30:59;;;;;;;28.05;22.75;;;;;;;15.26;100.00;101808.75;7394203;19;20014;-65
2023/06/24 06:33:27;;;;;;;28.65;22.65;;;;;;;15.25;100.00;101810.53;7395321;19;20030;-66
2023/06/24 06:35:56;;;;;;;27.42;22.92;;;;;;;15.29;100.00;101811.31;7395551;19;20086;-66
2023/06/24 06:38:24;;;;;;;28.90;22.30;;;;;;;15.29;100.00;101803.38;7395058;19;20485;-66
2023/06/24 06:40:52;;;;;;;25.23;22.52;;;;;;;15.31;100.00;101802.44;7393274;19;20010;-66
2023/06/24 06:43:21;;;;;;;27.23;21.73;;;;;;;15.37;100.00;101806.72;7393019;19;20021;-66
2023/06/24 06:45:49;;;;;;;25.10;21.67;;;;;;;15.45;100.00;101799.44;7394994;19;20015;-66
2023/06/24 06:48:20;;;;;;;27.25;21.65;;;;;;;15.53;100.00;101798.38;7395014;19;20019;-65
2023/06/24 06:50:49;;;;;;;23.23;19.27;;;;;;;15.61;100.00;101805.22;7395054;19;20018;-66
2023/06/24 06:53:18;;;;;;;21.95;17.67;;;;;;;15.67;100.00;101806.84;7394083;19;20019;-65
2023/06/24 06:55:46;;;;;;;21.50;19.13;;;;;;;15.75;100.00;101815.44;7394711;19;20369;-66
2023/06/24 06:58:15;;;;;;;26.35;21.38;;;;;;;15.82;100.00;101810.03;7394807;19;20018;-65
2023/06/24 07:00:43;;;;;;;26.88;21.98;;;;;;;15.90;100.00;101810.69;7392731;19;20384;-66
2023/06/24 07:03:12;;;;;;;23.00;18.02;;;;;;;15.98;100.00;101807.84;7393769;19;20023;-66
2023/06/24 07:05:43;;;;;;;21.10;18.15;;;;;;;16.03;100.00;101806.78;7392697;19;20015;-66
2023/06/24 07:08:11;;;;;;;22.08;19.15;;;;;;;16.09;100.00;101805.75;7393264;19;20014;-66
2023/06/24 07:10:40;;;;;;;21.50;18.67;;;;;;;16.18;100.00;101802.00;7392613;19;20029;-65
2023/06/24 07:13:08;;;;;;;21.58;18.45;;;;;;;16.24;100.00;101800.03;7393935;19;20025;-66
2023/06/24 07:15:36;;;;;;;24.70;17.60;;;;;;;16.28;100.00;101799.03;7392723;19;20015;-66
2023/06/24 07:18:05;;;;;;;22.80;19.02;;;;;;;16.32;100.00;101807.75;7394073;19;20469;-65
2023/06/24 07:20:33;;;;;;;28.15;17.48;;;;;;;16.29;100.00;101813.16;7394072;19;20010;-66
2023/06/24 07:23:05;;;;;;;21.67;16.05;;;;;;;16.29;100.00;101814.00;7393450;19;20511;-66
2023/06/24 07:25:34;;;;;;;18.35;16.30;;;;;;;16.32;100.00;101818.34;7397888;19;20015;-66
2023/06/24 07:28:02;;;;;;;20.17;16.25;;;;;;;16.35;100.00;101818.28;7401371;19;20014;-66
2023/06/24 07:30:31;;;;;;;19.05;15.63;;;;;;;16.38;100.00;101828.75;7399191;19;20426;-66
2023/06/24 07:33:05;;;;;;;26.10;17.02;;;;;;;16.41;100.00;101823.34;7401167;19;20078;-66
2023/06/24 07:35:33;;;;;;;22.35;17.58;;;;;;;16.48;100.00;101826.72;7400863;19;20014;-66
2023/06/24 07:38:05;;;;;;;19.80;16.05;;;;;;;16.54;99.64;101836.25;7401845;19;20018;-65
2023/06/24 07:40:33;;;;;;;19.55;14.93;;;;;;;16.56;99.36;101837.94;7398837;19;20073;-66
2023/06/24 07:43:02;;;;;;;18.15;15.85;;;;;;;16.59;100.00;101839.63;7400417;19;20024;-66
2023/06/24 07:45:30;;;;;;;18.48;15.23;;;;;;;16.62;97.99;101836.91;7401224;19;20078;-66
2023/06/24 07:47:59;;;;;;;18.92;13.93;;;;;;;16.66;99.78;101833.25;7398295;19;20018;-66
2023/06/24 07:50:27;;;;;;;16.70;12.70;;;;;;;16.76;98.94;101841.78;7398344;19;20086;-66
2023/06/24 07:52:55;;;;;;;13.85;11.25;;;;;;;16.83;96.15;101845.13;7400744;19;20018;-66
2023/06/24 07:55:26;;;;;;;15.27;12.95;;;;;;;16.89;96.20;101843.13;7398789;19;20014;-66
2023/06/24 07:57:55;;;;;;;15.40;13.45;;;;;;;16.95;95.58;101842.13;7401198;19;20160;-66
2023/06/24 08:00:23;;;;;;;15.63;13.32;;;;;;;16.99;93.38;101842.91;7400777;19;20023;-66
2023/06/24 08:02:52;;;;;;;19.10;14.63;;;;;;;17.04;96.23;101840.97;7400072;19;20015;-67
2023/06/24 08:05:20;;;;;;;16.63;14.07;;;;;;;17.07;96.96;101847.06;7399939;19;20021;-66
2023/06/24 08:07:49;;;;;;;16.42;14.23;;;;;;;17.04;91.76;101839.19;7399830;19;20501;-66
2023/06/24 08:10:17;;;;;;;18.00;13.43;;;;;;;17.06;93.92;101840.00;7398072;19;20017;-66
2023/06/24 08:12:54;;;;;;;16.73;14.80;;;;;;;17.08;93.68;101824.91;7399285;19;20136;-66
2023/06/24 08:15:23;;;;;;;16.15;13.50;;;;;;;17.07;92.54;101832.91;7400527;19;20155;-67
2023/06/24 08:17:54;;;;;;;16.65;13.82;;;;;;;17.08;92.77;101830.19;7399569;19;20366;-66
2023/06/24 08:20:29;;;;;;;19.33;14.57;;;;;;;17.16;93.65;101829.09;7400358;19;20011;-67
2023/06/24 08:22:57;;;;;;;15.02;13.43;;;;;;;17.20;93.34;101834.25;7399303;19;20030;-67
2023/06/24 08:25:26;;;;;;;14.48;12.95;;;;;;;17.21;94.04;101835.13;7397203;19;20015;-67
2023/06/24 08:27:57;;;;;;;15.98;13.18;;;;;;;17.22;93.30;101843.03;7400729;19;20015;-67
2023/06/24 08:30:27;;;;;;;14.25;12.75;;;;;;;17.24;92.66;101835.88;7397482;19;20482;-66
2023/06/24 08:32:55;;;;;;;16.33;12.05;;;;;;;17.29;91.98;101843.72;7398822;19;20015;-67
2023/06/24 08:35:24;;;;;;;13.45;11.43;;;;;;;17.29;91.41;101830.44;7398579;19;20018;-67
2023/06/24 08:37:52;;;;;;;15.35;11.63;;;;;;;17.30;89.63;101837.50;7397132;19;20081;-67
2023/06/24 08:40:21;;;;;;;11.48;9.25;;;;;;;17.29;86.91;101842.81;7397478;19;20017;-67
2023/06/24 08:42:49;;;;;;;12.65;10.18;;;;;;;17.25;83.97;101842.09;7399034;19;20090;-67
2023/06/24 08:45:20;;;;;;;9.88;8.80;;;;;;;17.25;87.21;101850.03;7396692;19;20373;-67
2023/06/24 08:47:50;;;;;;;11.52;9.27;;;;;;;17.29;87.82;101851.66;7398942;19;20074;-67
2023/06/24 08:50:20;;;;;;;14.27;8.95;;;;;;;17.33;86.46;101850.63;7397327;19;20086;-66
2023/06/24 08:52:53;;;;;;;10.15;8.57;;;;;;;17.39;85.34;101846.94;7397883;19;20441;-66
2023/06/24 08:55:25;;;;;;;9.55;7.82;;;;;;;17.48;84.21;101843.09;7398159;19;20011;-67
2023/06/24 08:57:53;;;;;;;10.73;7.93;;;;;;;17.52;85.04;101848.25;7395805;19;20493;-68
2023/06/24 09:00:24;;;;;;;8.73;7.57;;;;;;;17.54;82.06;101853.50;7398423;19;20094;-67
2023/06/24 09:02:53;;;;;;;10.50;8.07;;;;;;;17.59;83.02;101859.50;7396580;19;20025;-67
2023/06/24 09:05:21;;;;;;;8.32;6.97;;;;;;;17.64;82.35;101852.28;7398522;19;20014;-67
2023/06/24 09:07:51;;;;;;;7.28;6.57;;;;;;;17.70;80.27;101853.84;7397610;19;20094;-64
2023/06/24 09:10:33;;;;;;;10.10;7.32;;;;;;;17.77;77.82;101849.19;7395648;19;20078;-64
2023/06/24 09:13:02;;;;;;;13.07;7.47;;;;;;;17.84;79.14;101840.97;7395992;19;20014;-64
2023/06/24 09:15:35;;;;;;;8.80;7.35;;;;;;;17.93;79.34;101847.75;7395664;19;20078;-65
2023/06/24 09:18:04;;;;;;;8.52;6.88;;;;;;;17.98;79.41;101845.81;7398162;19;20039;-65
2023/06/24 09:20:39;;;;;;;8.77;6.88;;;;;;;18.06;79.24;101850.88;7397500;19;20038;-66
2023/06/24 09:23:07;;;;;;;6.57;5.93;;;;;;;18.15;78.26;101847.88;7395640;19;20355;-64
2023/06/24 09:25:36;;;;;;;7.63;6.82;;;;;;;18.21;75.45;101857.41;7397565;19;20018;-64
2023/06/24 09:28:05;;;;;;;10.05;5.82;;;;;;;18.25;73.93;101856.41;7397300;19;20081;-64
2023/06/24 09:30:37;;;;;;;7.38;5.68;;;;;;;18.28;75.25;101852.75;7395525;19;20018;-65
2023/06/24 09:33:05;;;;;;;7.45;6.35;;;;;;;18.33;74.21;101854.31;7398554;19;20025;-65
2023/06/24 09:35:38;;;;;;;7.60;5.97;;;;;;;18.38;74.39;101840.88;7395497;19;20082;-65
2023/06/24 09:38:06;;;;;;;6.90;6.18;;;;;;;18.44;74.73;101845.06;7395699;19;20035;-65
2023/06/24 09:40:37;;;;;;;7.28;5.50;;;;;;;18.49;73.89;101835.16;7395635;19;20017;-65
2023/06/24 09:43:05;;;;;;;8.40;5.55;;;;;;;18.55;74.10;101838.44;7395664;19;20019;-64
2023/06/24 09:45:36;;;;;;;7.03;5.63;;;;;;;18.63;72.44;101838.16;7396159;19;20078;-64
2023/06/24 09:48:05;;;;;;;10.05;5.75;;;;;;;18.71;73.61;101835.19;7396688;19;20081;-67
2023/06/24 09:50:36;;;;;;;6.53;5.60;;;;;;;18.79;72.06;101838.44;7395882;19;20025;-64
2023/06/24 09:53:05;;;;;;;5.38;4.80;;;;;;;18.89;69.82;101836.25;7396996;19;20025;-64
2023/06/24 09:55:34;;;;;;;6.68;5.60;;;;;;;18.94;69.46;101829.00;7396629;19;20010;-64
2023/06/24 09:58:03;;;;;;;7.65;6.07;;;;;;;19.02;70.04;101842.03;7396857;19;20015;-64
2023/06/24 10:00:32;;;;;;;6.68;5.60;;;;;;;19.08;68.67;101832.91;7394715;19;20073;-64
2023/06/24 10:03:03;;;;;;;7.35;5.35;;;;;;;19.12;69.50;101829.19;7395435;19;20378;-64
2023/06/24 10:05:31;;;;;;;7.65;4.88;;;;;;;19.18;68.53;101823.63;7395913;19;20020;-65
2023/06/24 10:08:00;;;;;;;9.90;5.50;;;;;;;19.26;69.06;101824.19;7396942;19;20094;-67
2023/06/24 10:10:28;;;;;;;6.68;5.22;;;;;;;19.32;68.47;101818.63;7393719;19;20018;-67
2023/06/24 10:12:57;;;;;;;6.13;5.50;;;;;;;19.35;67.66;101818.47;7393474;19;20010;-65
2023/06/24 10:15:25;;;;;;;10.02;5.80;;;;;;;19.41;68.41;101819.16;7395890;19;20019;-65
2023/06/24 10:17:54;;;;;;;8.23;5.78;;;;;;;19.46;68.29;101823.38;7396074;19;20493;-67
2023/06/24 10:20:29;;;;;;;5.82;5.22;;;;;;;19.48;64.71;101823.28;7397333;19;20019;-65
2023/06/24 10:22:59;;;;;;;7.47;5.00;;;;;;;19.52;67.98;101820.44;7394412;19;20026;-65
2023/06/24 10:25:37;;;;;;;5.90;4.70;;;;;;;19.56;67.50;101809.66;7393266;19;20037;-65
2023/06/24 10:28:06;;;;;;;7.03;5.30;;;;;;;19.59;67.21;101807.72;7395495;19;20021;-65
2023/06/24 10:30:35;;;;;;;5.65;5.03;;;;;;;19.64;67.25;101792.44;7393908;19;20500;-62
2023/06/24 10:33:03;;;;;;;6.47;4.55;;;;;;;19.68;64.95;101798.50;7393318;19;20036;-64
2023/06/24 10:35:35;;;;;;;6.28;4.88;;;;;;;19.78;64.26;101804.28;7395104;19;20022;-65
2023/06/24 10:38:04;;;;;;;5.40;4.90;;;;;;;19.83;65.63;101802.31;7395130;19;20488;-65
2023/06/24 10:40:40;;;;;;;7.57;4.95;;;;;;;19.86;63.96;101807.50;7393103;19;20098;-65
2023/06/24 10:43:30;;;;;;;5.35;4.57;;;;;;;19.94;64.32;101800.03;7393450;19;20043;-65
2023/06/24 10:46:00;;;;;;;4.38;3.97;;;;;;;20.01;65.42;101800.63;7395662;19;20026;-64
2023/06/24 10:48:28;;;;;;;5.22;4.10;;;;;;;20.08;65.40;101787.88;7396091;19;20017;-64
2023/06/24 10:51:00;;;;;;;6.38;4.20;;;;;;;20.12;62.42;101794.78;7393141;19;20360;-64
2023/06/24 10:53:30;;;;;;;5.22;3.90;;;;;;;20.16;61.86;101794.59;7394819;19;20028;-66
2023/06/24 10:56:00;;;;;;;5.53;3.90;;;;;;;20.20;63.02;101789.16;7394608;19;20387;-64
2023/06/24 10:58:29;;;;;;;6.05;4.15;;;;;;;20.25;62.84;101785.31;7393464;19;20108;-64
2023/06/24 11:01:09;;;;;;;6.00;4.30;;;;;;;20.32;59.66;101796.56;7403906;19;20018;-64
2023/06/24 11:03:38;;;;;;;7.97;4.30;;;;;;;20.40;62.23;101785.56;7407007;19;20035;-64
2023/06/24 11:06:13;;;;;;;5.18;3.78;;;;;;;20.40;60.91;101786.41;7409154;19;20042;-64
2023/06/24 11:08:46;;;;;;;4.55;4.10;;;;;;;20.43;58.87;101804.06;7407810;19;20015;-64
2023/06/24 11:11:22;;;;;;;4.05;3.33;;;;;;;20.45;58.33;101795.06;7408043;19;20015;-63
2023/06/24 11:13:51;;;;;;;6.78;3.70;;;;;;;20.53;61.07;101794.69;7407385;19;20039;-64
2023/06/24 11:16:23;;;;;;;5.35;3.80;;;;;;;20.61;59.35;101779.22;7408269;19;20386;-64
2023/06/24 11:18:51;;;;;;;5.25;3.60;;;;;;;20.72;61.01;101785.88;7405947;19;20010;-64
2023/06/24 11:21:22;;;;;;;7.18;3.78;;;;;;;20.80;59.61;101792.56;7407968;19;20091;-64